sensor_id;sensor_type;location;lat;lon;timestamp;P1;durP1;ratioP1;P2;durP2;ratioP2
9974;SDS011;5028;50.974;4.968;2023-05-14T00:01:11;7.70;;;7.00;;
9974;SDS011;5028;50.974;4.968;2023-05-14T00:03:40;8.90;;;7.20;;
9974;SDS011;5028;50.974;4.968;2023-05-14T00:06:11;8.37;;;7.40;;
9974;SDS011;5028;50.974;4.968;2023-05-14T00:08:42;8.17;;;7.37;;
9974;SDS011;5028;50.974;4.968;2023-05-14T00:11:11;9.03;;;8.13;;
9974;SDS011;5028;50.974;4.968;2023-05-14T00:13:39;10.17;;;8.40;;
9974;SDS011;5028;50.974;4.968;2023-05-14T00:16:10;9.90;;;8.90;;
9974;SDS011;5028;50.974;4.968;2023-05-14T00:18:39;9.97;;;8.90;;
9974;SDS011;5028;50.974;4.968;2023-05-14T00:21:07;9.73;;;8.77;;
9974;SDS011;5028;50.974;4.968;2023-05-14T00:23:36;11.40;;;8.47;;
9974;SDS011;5028;50.974;4.968;2023-05-14T00:26:04;9.33;;;8.53;;
9974;SDS011;5028;50.974;4.968;2023-05-14T00:28:33;10.43;;;9.47;;
9974;SDS011;5028;50.974;4.968;2023-05-14T00:31:02;10.17;;;9.17;;
9974;SDS011;5028;50.974;4.968;2023-05-14T00:33:32;10.77;;;9.77;;
9974;SDS011;5028;50.974;4.968;2023-05-14T00:36:01;10.70;;;9.70;;
9974;SDS011;5028;50.974;4.968;2023-05-14T00:38:30;10.87;;;9.97;;
9974;SDS011;5028;50.974;4.968;2023-05-14T00:40:59;11.17;;;9.93;;
9974;SDS011;5028;50.974;4.968;2023-05-14T00:43:28;10.97;;;9.93;;
9974;SDS011;5028;50.974;4.968;2023-05-14T00:45:58;12.67;;;10.40;;
9974;SDS011;5028;50.974;4.968;2023-05-14T00:48:27;11.90;;;10.73;;
9974;SDS011;5028;50.974;4.968;2023-05-14T00:50:58;13.90;;;10.87;;
9974;SDS011;5028;50.974;4.968;2023-05-14T00:53:27;12.10;;;10.63;;
9974;SDS011;5028;50.974;4.968;2023-05-14T00:55:56;14.00;;;10.43;;
9974;SDS011;5028;50.974;4.968;2023-05-14T00:58:25;15.53;;;11.10;;
9974;SDS011;5028;50.974;4.968;2023-05-14T01:00:54;12.50;;;11.20;;
9974;SDS011;5028;50.974;4.968;2023-05-14T01:03:23;13.00;;;11.47;;
9974;SDS011;5028;50.974;4.968;2023-05-14T01:05:54;11.83;;;10.93;;
9974;SDS011;5028;50.974;4.968;2023-05-14T01:08:31;12.77;;;11.57;;
9974;SDS011;5028;50.974;4.968;2023-05-14T01:11:09;12.47;;;11.27;;
9974;SDS011;5028;50.974;4.968;2023-05-14T01:13:46;13.80;;;12.50;;
9974;SDS011;5028;50.974;4.968;2023-05-14T01:16:21;13.13;;;11.77;;
9974;SDS011;5028;50.974;4.968;2023-05-14T01:18:53;13.40;;;12.03;;
9974;SDS011;5028;50.974;4.968;2023-05-14T01:21:32;15.87;;;13.67;;
9974;SDS011;5028;50.974;4.968;2023-05-14T01:24:03;14.73;;;13.33;;
9974;SDS011;5028;50.974;4.968;2023-05-14T01:26:32;15.37;;;13.87;;
9974;SDS011;5028;50.974;4.968;2023-05-14T01:29:08;16.47;;;14.87;;
9974;SDS011;5028;50.974;4.968;2023-05-14T01:31:43;17.50;;;15.70;;
9974;SDS011;5028;50.974;4.968;2023-05-14T01:34:13;16.60;;;15.10;;
9974;SDS011;5028;50.974;4.968;2023-05-14T01:36:44;16.43;;;15.03;;
9974;SDS011;5028;50.974;4.968;2023-05-14T01:39:14;17.10;;;15.40;;
9974;SDS011;5028;50.974;4.968;2023-05-14T01:41:43;16.70;;;15.20;;
9974;SDS011;5028;50.974;4.968;2023-05-14T01:44:13;16.53;;;15.13;;
9974;SDS011;5028;50.974;4.968;2023-05-14T01:46:42;17.47;;;15.97;;
9974;SDS011;5028;50.974;4.968;2023-05-14T01:49:11;17.97;;;16.40;;
9974;SDS011;5028;50.974;4.968;2023-05-14T01:51:39;18.40;;;16.40;;
9974;SDS011;5028;50.974;4.968;2023-05-14T01:54:10;18.73;;;17.07;;
9974;SDS011;5028;50.974;4.968;2023-05-14T01:56:38;19.43;;;17.40;;
9974;SDS011;5028;50.974;4.968;2023-05-14T01:59:07;18.90;;;17.20;;
9974;SDS011;5028;50.974;4.968;2023-05-14T02:01:38;20.83;;;18.83;;
9974;SDS011;5028;50.974;4.968;2023-05-14T02:04:07;21.40;;;19.40;;
9974;SDS011;5028;50.974;4.968;2023-05-14T02:06:35;22.57;;;20.27;;
9974;SDS011;5028;50.974;4.968;2023-05-14T02:09:04;21.77;;;19.77;;
9974;SDS011;5028;50.974;4.968;2023-05-14T02:11:34;22.47;;;20.47;;
9974;SDS011;5028;50.974;4.968;2023-05-14T02:14:03;23.97;;;21.53;;
9974;SDS011;5028;50.974;4.968;2023-05-14T02:16:32;24.90;;;22.23;;
9974;SDS011;5028;50.974;4.968;2023-05-14T02:19:01;25.23;;;22.90;;
9974;SDS011;5028;50.974;4.968;2023-05-14T02:21:30;25.40;;;22.87;;
9974;SDS011;5028;50.974;4.968;2023-05-14T02:23:59;26.77;;;24.17;;
9974;SDS011;5028;50.974;4.968;2023-05-14T02:26:28;28.63;;;25.77;;
9974;SDS011;5028;50.974;4.968;2023-05-14T02:28:58;28.33;;;25.70;;
9974;SDS011;5028;50.974;4.968;2023-05-14T02:31:27;29.93;;;26.90;;
9974;SDS011;5028;50.974;4.968;2023-05-14T02:33:56;30.50;;;27.23;;
9974;SDS011;5028;50.974;4.968;2023-05-14T02:36:25;30.93;;;27.83;;
9974;SDS011;5028;50.974;4.968;2023-05-14T02:38:54;30.63;;;27.60;;
9974;SDS011;5028;50.974;4.968;2023-05-14T02:41:23;31.53;;;28.13;;
9974;SDS011;5028;50.974;4.968;2023-05-14T02:43:52;31.67;;;28.43;;
9974;SDS011;5028;50.974;4.968;2023-05-14T02:46:24;31.03;;;28.20;;
9974;SDS011;5028;50.974;4.968;2023-05-14T02:48:52;32.87;;;29.57;;
9974;SDS011;5028;50.974;4.968;2023-05-14T02:51:21;34.43;;;30.77;;
9974;SDS011;5028;50.974;4.968;2023-05-14T02:53:52;32.90;;;29.70;;
9974;SDS011;5028;50.974;4.968;2023-05-14T02:56:21;35.13;;;31.37;;
9974;SDS011;5028;50.974;4.968;2023-05-14T02:58:49;35.47;;;32.00;;
9974;SDS011;5028;50.974;4.968;2023-05-14T03:01:19;34.03;;;30.73;;
9974;SDS011;5028;50.974;4.968;2023-05-14T03:03:50;36.20;;;32.50;;
9974;SDS011;5028;50.974;4.968;2023-05-14T03:06:21;36.40;;;32.70;;
9974;SDS011;5028;50.974;4.968;2023-05-14T03:08:49;37.37;;;33.47;;
9974;SDS011;5028;50.974;4.968;2023-05-14T03:11:18;39.23;;;34.97;;
9974;SDS011;5028;50.974;4.968;2023-05-14T03:13:47;39.30;;;35.27;;
9974;SDS011;5028;50.974;4.968;2023-05-14T03:16:16;39.37;;;35.43;;
9974;SDS011;5028;50.974;4.968;2023-05-14T03:18:44;35.23;;;31.73;;
9974;SDS011;5028;50.974;4.968;2023-05-14T03:21:15;37.17;;;33.23;;
9974;SDS011;5028;50.974;4.968;2023-05-14T03:23:44;38.27;;;34.17;;
9974;SDS011;5028;50.974;4.968;2023-05-14T03:26:13;37.17;;;32.80;;
9974;SDS011;5028;50.974;4.968;2023-05-14T03:28:43;37.13;;;33.33;;
9974;SDS011;5028;50.974;4.968;2023-05-14T03:31:12;38.23;;;34.40;;
9974;SDS011;5028;50.974;4.968;2023-05-14T03:33:41;37.50;;;33.70;;
9974;SDS011;5028;50.974;4.968;2023-05-14T03:36:11;39.13;;;35.13;;
9974;SDS011;5028;50.974;4.968;2023-05-14T03:38:41;36.67;;;32.90;;
9974;SDS011;5028;50.974;4.968;2023-05-14T03:41:09;38.13;;;34.03;;
9974;SDS011;5028;50.974;4.968;2023-05-14T03:43:38;36.97;;;33.30;;
9974;SDS011;5028;50.974;4.968;2023-05-14T03:46:07;39.80;;;35.53;;
9974;SDS011;5028;50.974;4.968;2023-05-14T03:48:36;38.27;;;34.23;;
9974;SDS011;5028;50.974;4.968;2023-05-14T03:51:05;38.03;;;34.30;;
9974;SDS011;5028;50.974;4.968;2023-05-14T03:53:34;37.70;;;33.73;;
9974;SDS011;5028;50.974;4.968;2023-05-14T03:56:05;38.47;;;34.37;;
9974;SDS011;5028;50.974;4.968;2023-05-14T03:58:33;39.20;;;35.07;;
9974;SDS011;5028;50.974;4.968;2023-05-14T04:01:02;39.37;;;35.47;;
9974;SDS011;5028;50.974;4.968;2023-05-14T04:03:33;39.80;;;35.53;;
9974;SDS011;5028;50.974;4.968;2023-05-14T04:06:03;40.90;;;36.60;;
9974;SDS011;5028;50.974;4.968;2023-05-14T04:08:32;39.83;;;35.67;;
9974;SDS011;5028;50.974;4.968;2023-05-14T04:11:01;40.70;;;36.33;;
9974;SDS011;5028;50.974;4.968;2023-05-14T04:13:33;39.20;;;35.10;;
9974;SDS011;5028;50.974;4.968;2023-05-14T04:16:01;44.93;;;37.07;;
9974;SDS011;5028;50.974;4.968;2023-05-14T04:18:32;40.93;;;36.57;;
9974;SDS011;5028;50.974;4.968;2023-05-14T04:21:02;42.27;;;38.07;;
9974;SDS011;5028;50.974;4.968;2023-05-14T04:23:31;42.40;;;37.97;;
9974;SDS011;5028;50.974;4.968;2023-05-14T04:26:00;44.23;;;39.47;;
9974;SDS011;5028;50.974;4.968;2023-05-14T04:28:28;45.03;;;40.10;;
9974;SDS011;5028;50.974;4.968;2023-05-14T04:30:59;47.27;;;41.53;;
9974;SDS011;5028;50.974;4.968;2023-05-14T04:33:27;48.63;;;43.27;;
9974;SDS011;5028;50.974;4.968;2023-05-14T04:35:56;51.33;;;44.63;;
9974;SDS011;5028;50.974;4.968;2023-05-14T04:38:25;49.90;;;43.53;;
9974;SDS011;5028;50.974;4.968;2023-05-14T04:40:55;46.67;;;40.07;;
9974;SDS011;5028;50.974;4.968;2023-05-14T04:43:24;50.80;;;44.27;;
9974;SDS011;5028;50.974;4.968;2023-05-14T04:45:52;49.20;;;43.77;;
9974;SDS011;5028;50.974;4.968;2023-05-14T04:48:23;49.90;;;43.30;;
9974;SDS011;5028;50.974;4.968;2023-05-14T04:50:53;54.63;;;44.60;;
9974;SDS011;5028;50.974;4.968;2023-05-14T04:53:22;49.63;;;43.20;;
9974;SDS011;5028;50.974;4.968;2023-05-14T04:55:51;46.40;;;41.43;;
9974;SDS011;5028;50.974;4.968;2023-05-14T04:58:20;44.13;;;39.43;;
9974;SDS011;5028;50.974;4.968;2023-05-14T05:00:50;47.73;;;42.10;;
9974;SDS011;5028;50.974;4.968;2023-05-14T05:03:19;48.57;;;40.60;;
9974;SDS011;5028;50.974;4.968;2023-05-14T05:05:49;45.50;;;40.40;;
9974;SDS011;5028;50.974;4.968;2023-05-14T05:08:18;47.30;;;39.37;;
9974;SDS011;5028;50.974;4.968;2023-05-14T05:10:47;41.97;;;37.43;;
9974;SDS011;5028;50.974;4.968;2023-05-14T05:13:16;43.63;;;37.93;;
9974;SDS011;5028;50.974;4.968;2023-05-14T05:15:44;47.07;;;40.10;;
9974;SDS011;5028;50.974;4.968;2023-05-14T05:18:13;45.07;;;40.27;;
9974;SDS011;5028;50.974;4.968;2023-05-14T05:20:42;47.90;;;42.87;;
9974;SDS011;5028;50.974;4.968;2023-05-14T05:23:12;45.30;;;40.47;;
9974;SDS011;5028;50.974;4.968;2023-05-14T05:25:41;45.17;;;40.43;;
9974;SDS011;5028;50.974;4.968;2023-05-14T05:28:10;46.03;;;41.20;;
9974;SDS011;5028;50.974;4.968;2023-05-14T05:30:39;54.07;;;43.30;;
9974;SDS011;5028;50.974;4.968;2023-05-14T05:33:10;43.97;;;39.13;;
9974;SDS011;5028;50.974;4.968;2023-05-14T05:35:39;45.10;;;40.40;;
9974;SDS011;5028;50.974;4.968;2023-05-14T05:38:09;44.73;;;38.87;;
9974;SDS011;5028;50.974;4.968;2023-05-14T05:40:40;44.63;;;38.87;;
9974;SDS011;5028;50.974;4.968;2023-05-14T05:43:09;43.37;;;38.77;;
9974;SDS011;5028;50.974;4.968;2023-05-14T05:45:39;41.10;;;36.60;;
9974;SDS011;5028;50.974;4.968;2023-05-14T05:48:08;41.43;;;37.00;;
9974;SDS011;5028;50.974;4.968;2023-05-14T05:50:37;42.13;;;37.90;;
9974;SDS011;5028;50.974;4.968;2023-05-14T05:53:06;42.50;;;35.93;;
9974;SDS011;5028;50.974;4.968;2023-05-14T05:55:35;40.80;;;36.33;;
9974;SDS011;5028;50.974;4.968;2023-05-14T05:58:05;39.73;;;35.43;;
9974;SDS011;5028;50.974;4.968;2023-05-14T06:00:34;38.87;;;34.83;;
9974;SDS011;5028;50.974;4.968;2023-05-14T06:03:02;36.63;;;32.90;;
9974;SDS011;5028;50.974;4.968;2023-05-14T06:05:31;35.93;;;32.30;;
9974;SDS011;5028;50.974;4.968;2023-05-14T06:08:01;35.80;;;32.00;;
9974;SDS011;5028;50.974;4.968;2023-05-14T06:10:31;31.33;;;28.03;;
9974;SDS011;5028;50.974;4.968;2023-05-14T06:13:00;30.97;;;27.90;;
9974;SDS011;5028;50.974;4.968;2023-05-14T06:15:30;30.53;;;27.57;;
9974;SDS011;5028;50.974;4.968;2023-05-14T06:17:59;27.80;;;24.80;;
9974;SDS011;5028;50.974;4.968;2023-05-14T06:20:28;28.70;;;25.87;;
9974;SDS011;5028;50.974;4.968;2023-05-14T06:22:57;27.47;;;24.57;;
9974;SDS011;5028;50.974;4.968;2023-05-14T06:25:27;28.60;;;25.20;;
9974;SDS011;5028;50.974;4.968;2023-05-14T06:27:55;27.50;;;24.80;;
9974;SDS011;5028;50.974;4.968;2023-05-14T06:30:24;25.83;;;23.23;;
9974;SDS011;5028;50.974;4.968;2023-05-14T06:32:55;25.90;;;23.20;;
9974;SDS011;5028;50.974;4.968;2023-05-14T06:35:24;26.33;;;23.70;;
9974;SDS011;5028;50.974;4.968;2023-05-14T06:37:53;26.10;;;23.67;;
9974;SDS011;5028;50.974;4.968;2023-05-14T06:40:22;26.33;;;23.73;;
9974;SDS011;5028;50.974;4.968;2023-05-14T06:42:54;27.17;;;24.40;;
9974;SDS011;5028;50.974;4.968;2023-05-14T06:45:22;23.50;;;21.10;;
9974;SDS011;5028;50.974;4.968;2023-05-14T06:47:51;25.10;;;22.63;;
9974;SDS011;5028;50.974;4.968;2023-05-14T06:50:21;24.87;;;22.37;;
9974;SDS011;5028;50.974;4.968;2023-05-14T06:52:51;26.63;;;24.03;;
9974;SDS011;5028;50.974;4.968;2023-05-14T06:55:19;27.87;;;24.97;;
9974;SDS011;5028;50.974;4.968;2023-05-14T06:57:49;28.60;;;25.57;;
9974;SDS011;5028;50.974;4.968;2023-05-14T07:00:18;28.37;;;25.60;;
9974;SDS011;5028;50.974;4.968;2023-05-14T07:02:48;29.00;;;26.30;;
9974;SDS011;5028;50.974;4.968;2023-05-14T07:05:17;28.87;;;26.07;;
9974;SDS011;5028;50.974;4.968;2023-05-14T07:07:47;29.60;;;26.67;;
9974;SDS011;5028;50.974;4.968;2023-05-14T07:10:16;28.70;;;25.70;;
9974;SDS011;5028;50.974;4.968;2023-05-14T07:12:45;25.27;;;22.77;;
9974;SDS011;5028;50.974;4.968;2023-05-14T07:15:14;25.50;;;22.67;;
9974;SDS011;5028;50.974;4.968;2023-05-14T07:17:42;25.00;;;22.60;;
9974;SDS011;5028;50.974;4.968;2023-05-14T07:20:12;22.70;;;20.40;;
9974;SDS011;5028;50.974;4.968;2023-05-14T07:22:45;23.87;;;21.37;;
9974;SDS011;5028;50.974;4.968;2023-05-14T07:25:15;22.87;;;20.70;;
9974;SDS011;5028;50.974;4.968;2023-05-14T07:27:44;23.70;;;21.23;;
9974;SDS011;5028;50.974;4.968;2023-05-14T07:30:14;22.80;;;20.07;;
9974;SDS011;5028;50.974;4.968;2023-05-14T07:32:43;23.63;;;20.27;;
9974;SDS011;5028;50.974;4.968;2023-05-14T07:35:11;21.37;;;19.17;;
9974;SDS011;5028;50.974;4.968;2023-05-14T07:37:41;22.53;;;20.43;;
9974;SDS011;5028;50.974;4.968;2023-05-14T07:40:12;20.70;;;18.70;;
9974;SDS011;5028;50.974;4.968;2023-05-14T07:42:42;21.57;;;19.43;;
9974;SDS011;5028;50.974;4.968;2023-05-14T07:45:10;21.50;;;19.50;;
9974;SDS011;5028;50.974;4.968;2023-05-14T07:47:40;20.90;;;18.70;;
9974;SDS011;5028;50.974;4.968;2023-05-14T07:50:09;20.63;;;18.73;;
9974;SDS011;5028;50.974;4.968;2023-05-14T07:52:39;20.40;;;18.50;;
9974;SDS011;5028;50.974;4.968;2023-05-14T07:55:08;20.60;;;18.60;;
9974;SDS011;5028;50.974;4.968;2023-05-14T07:57:39;20.43;;;18.53;;
9974;SDS011;5028;50.974;4.968;2023-05-14T08:00:08;19.77;;;17.93;;
9974;SDS011;5028;50.974;4.968;2023-05-14T08:02:38;20.67;;;18.63;;
9974;SDS011;5028;50.974;4.968;2023-05-14T08:05:09;18.97;;;17.17;;
9974;SDS011;5028;50.974;4.968;2023-05-14T08:07:38;19.60;;;17.63;;
9974;SDS011;5028;50.974;4.968;2023-05-14T08:10:08;19.57;;;17.47;;
9974;SDS011;5028;50.974;4.968;2023-05-14T08:12:38;18.67;;;16.77;;
9974;SDS011;5028;50.974;4.968;2023-05-14T08:15:08;20.67;;;18.47;;
9974;SDS011;5028;50.974;4.968;2023-05-14T08:17:37;21.33;;;19.03;;
9974;SDS011;5028;50.974;4.968;2023-05-14T08:20:07;21.63;;;19.33;;
9974;SDS011;5028;50.974;4.968;2023-05-14T08:22:38;19.23;;;17.20;;
9974;SDS011;5028;50.974;4.968;2023-05-14T08:25:07;19.87;;;16.90;;
9974;SDS011;5028;50.974;4.968;2023-05-14T08:27:36;20.77;;;18.73;;
9974;SDS011;5028;50.974;4.968;2023-05-14T08:30:07;24.50;;;21.87;;
9974;SDS011;5028;50.974;4.968;2023-05-14T08:32:37;29.27;;;24.13;;
9974;SDS011;5028;50.974;4.968;2023-05-14T08:35:06;25.77;;;23.07;;
9974;SDS011;5028;50.974;4.968;2023-05-14T08:37:35;25.17;;;22.47;;
9974;SDS011;5028;50.974;4.968;2023-05-14T08:40:04;25.00;;;22.10;;
9974;SDS011;5028;50.974;4.968;2023-05-14T08:42:35;20.53;;;17.23;;
9974;SDS011;5028;50.974;4.968;2023-05-14T08:45:09;21.40;;;16.63;;
9974;SDS011;5028;50.974;4.968;2023-05-14T08:47:44;18.33;;;15.93;;
9974;SDS011;5028;50.974;4.968;2023-05-14T08:50:17;16.93;;;14.90;;
9974;SDS011;5028;50.974;4.968;2023-05-14T08:52:48;18.20;;;16.33;;
9974;SDS011;5028;50.974;4.968;2023-05-14T08:55:17;17.63;;;15.87;;
9974;SDS011;5028;50.974;4.968;2023-05-14T08:57:48;19.07;;;16.00;;
9974;SDS011;5028;50.974;4.968;2023-05-14T09:00:18;17.70;;;15.90;;
9974;SDS011;5028;50.974;4.968;2023-05-14T09:02:47;17.67;;;15.87;;
9974;SDS011;5028;50.974;4.968;2023-05-14T09:05:18;17.00;;;15.23;;
9974;SDS011;5028;50.974;4.968;2023-05-14T09:07:47;18.13;;;15.27;;
9974;SDS011;5028;50.974;4.968;2023-05-14T09:10:16;16.97;;;15.10;;
9974;SDS011;5028;50.974;4.968;2023-05-14T09:12:46;16.97;;;13.87;;
9974;SDS011;5028;50.974;4.968;2023-05-14T09:15:17;16.80;;;15.17;;
9974;SDS011;5028;50.974;4.968;2023-05-14T09:17:46;16.17;;;14.63;;
9974;SDS011;5028;50.974;4.968;2023-05-14T09:20:14;16.43;;;14.73;;
9974;SDS011;5028;50.974;4.968;2023-05-14T09:22:44;16.03;;;14.50;;
9974;SDS011;5028;50.974;4.968;2023-05-14T09:25:13;16.53;;;15.03;;
9974;SDS011;5028;50.974;4.968;2023-05-14T09:27:41;16.30;;;14.60;;
9974;SDS011;5028;50.974;4.968;2023-05-14T09:30:17;17.33;;;15.63;;
9974;SDS011;5028;50.974;4.968;2023-05-14T09:32:47;16.27;;;14.67;;
9974;SDS011;5028;50.974;4.968;2023-05-14T09:35:16;16.63;;;15.03;;
9974;SDS011;5028;50.974;4.968;2023-05-14T09:37:47;16.87;;;15.17;;
9974;SDS011;5028;50.974;4.968;2023-05-14T09:40:17;17.47;;;15.70;;
9974;SDS011;5028;50.974;4.968;2023-05-14T09:42:47;17.93;;;16.13;;
9974;SDS011;5028;50.974;4.968;2023-05-14T09:45:18;17.87;;;15.83;;
9974;SDS011;5028;50.974;4.968;2023-05-14T09:47:48;18.13;;;16.23;;
9974;SDS011;5028;50.974;4.968;2023-05-14T09:50:19;17.13;;;15.33;;
9974;SDS011;5028;50.974;4.968;2023-05-14T09:52:48;18.13;;;16.40;;
9974;SDS011;5028;50.974;4.968;2023-05-14T09:55:17;17.67;;;15.90;;
9974;SDS011;5028;50.974;4.968;2023-05-14T09:57:48;18.77;;;16.83;;
9974;SDS011;5028;50.974;4.968;2023-05-14T10:00:19;18.50;;;16.73;;
9974;SDS011;5028;50.974;4.968;2023-05-14T10:02:49;19.77;;;17.77;;
9974;SDS011;5028;50.974;4.968;2023-05-14T10:05:19;19.33;;;16.97;;
9974;SDS011;5028;50.974;4.968;2023-05-14T10:07:50;18.17;;;16.07;;
9974;SDS011;5028;50.974;4.968;2023-05-14T10:10:21;18.47;;;16.50;;
9974;SDS011;5028;50.974;4.968;2023-05-14T10:12:54;19.87;;;17.90;;
9974;SDS011;5028;50.974;4.968;2023-05-14T10:15:29;17.80;;;16.10;;
9974;SDS011;5028;50.974;4.968;2023-05-14T10:18:07;16.40;;;14.73;;
9974;SDS011;5028;50.974;4.968;2023-05-14T10:20:39;17.23;;;15.50;;
9974;SDS011;5028;50.974;4.968;2023-05-14T10:23:09;18.10;;;16.20;;
9974;SDS011;5028;50.974;4.968;2023-05-14T10:25:39;17.17;;;15.57;;
9974;SDS011;5028;50.974;4.968;2023-05-14T10:28:08;16.93;;;15.23;;
9974;SDS011;5028;50.974;4.968;2023-05-14T10:30:42;18.13;;;16.40;;
9974;SDS011;5028;50.974;4.968;2023-05-14T10:33:11;18.53;;;16.63;;
9974;SDS011;5028;50.974;4.968;2023-05-14T10:35:49;16.17;;;13.80;;
9974;SDS011;5028;50.974;4.968;2023-05-14T10:38:24;18.27;;;16.47;;
9974;SDS011;5028;50.974;4.968;2023-05-14T10:40:58;17.63;;;15.93;;
9974;SDS011;5028;50.974;4.968;2023-05-14T10:43:28;17.20;;;15.50;;
9974;SDS011;5028;50.974;4.968;2023-05-14T10:45:59;17.17;;;15.47;;
9974;SDS011;5028;50.974;4.968;2023-05-14T10:48:28;17.37;;;15.77;;
9974;SDS011;5028;50.974;4.968;2023-05-14T10:50:57;17.13;;;15.43;;
9974;SDS011;5028;50.974;4.968;2023-05-14T10:53:29;16.93;;;15.33;;
9974;SDS011;5028;50.974;4.968;2023-05-14T10:56:01;16.77;;;15.07;;
9974;SDS011;5028;50.974;4.968;2023-05-14T10:58:31;18.00;;;14.40;;
9974;SDS011;5028;50.974;4.968;2023-05-14T11:01:05;16.07;;;14.47;;
9974;SDS011;5028;50.974;4.968;2023-05-14T11:03:38;16.57;;;14.57;;
9974;SDS011;5028;50.974;4.968;2023-05-14T11:06:09;16.30;;;14.60;;
9974;SDS011;5028;50.974;4.968;2023-05-14T11:08:39;16.40;;;14.80;;
9974;SDS011;5028;50.974;4.968;2023-05-14T11:11:12;15.07;;;13.70;;
9974;SDS011;5028;50.974;4.968;2023-05-14T11:13:41;15.23;;;13.73;;
9974;SDS011;5028;50.974;4.968;2023-05-14T11:16:12;15.13;;;13.73;;
9974;SDS011;5028;50.974;4.968;2023-05-14T11:18:56;15.37;;;13.80;;
9974;SDS011;5028;50.974;4.968;2023-05-14T11:21:29;15.97;;;14.27;;
9974;SDS011;5028;50.974;4.968;2023-05-14T11:23:58;16.13;;;13.67;;
9974;SDS011;5028;50.974;4.968;2023-05-14T11:26:27;14.90;;;13.40;;
9974;SDS011;5028;50.974;4.968;2023-05-14T11:28:56;15.20;;;13.60;;
9974;SDS011;5028;50.974;4.968;2023-05-14T11:31:26;15.63;;;14.03;;
9974;SDS011;5028;50.974;4.968;2023-05-14T11:33:56;17.33;;;14.23;;
9974;SDS011;5028;50.974;4.968;2023-05-14T11:36:26;15.20;;;13.07;;
9974;SDS011;5028;50.974;4.968;2023-05-14T11:38:55;14.40;;;13.03;;
9974;SDS011;5028;50.974;4.968;2023-05-14T11:41:24;14.70;;;13.30;;
9974;SDS011;5028;50.974;4.968;2023-05-14T11:43:56;14.60;;;13.20;;
9974;SDS011;5028;50.974;4.968;2023-05-14T11:46:27;13.27;;;11.87;;
9974;SDS011;5028;50.974;4.968;2023-05-14T11:48:56;13.53;;;12.27;;
9974;SDS011;5028;50.974;4.968;2023-05-14T11:51:25;12.37;;;11.03;;
9974;SDS011;5028;50.974;4.968;2023-05-14T11:53:54;13.87;;;11.90;;
9974;SDS011;5028;50.974;4.968;2023-05-14T11:56:24;13.47;;;11.97;;
9974;SDS011;5028;50.974;4.968;2023-05-14T11:58:54;12.73;;;11.63;;
9974;SDS011;5028;50.974;4.968;2023-05-14T12:01:24;11.40;;;10.30;;
9974;SDS011;5028;50.974;4.968;2023-05-14T12:04:01;11.23;;;10.20;;
9974;SDS011;5028;50.974;4.968;2023-05-14T12:06:31;11.53;;;10.37;;
9974;SDS011;5028;50.974;4.968;2023-05-14T12:09:00;10.93;;;10.00;;
9974;SDS011;5028;50.974;4.968;2023-05-14T12:11:34;11.80;;;10.53;;
9974;SDS011;5028;50.974;4.968;2023-05-14T12:14:09;13.13;;;10.80;;
9974;SDS011;5028;50.974;4.968;2023-05-14T12:16:39;11.43;;;10.33;;
9974;SDS011;5028;50.974;4.968;2023-05-14T12:19:12;10.60;;;9.60;;
9974;SDS011;5028;50.974;4.968;2023-05-14T12:21:43;10.33;;;9.40;;
9974;SDS011;5028;50.974;4.968;2023-05-14T12:24:14;10.00;;;9.10;;
9974;SDS011;5028;50.974;4.968;2023-05-14T12:26:45;11.00;;;9.23;;
9974;SDS011;5028;50.974;4.968;2023-05-14T12:29:14;10.03;;;9.07;;
9974;SDS011;5028;50.974;4.968;2023-05-14T12:31:44;11.57;;;9.37;;
9974;SDS011;5028;50.974;4.968;2023-05-14T12:34:16;11.50;;;8.83;;
9974;SDS011;5028;50.974;4.968;2023-05-14T12:36:46;10.10;;;8.87;;
9974;SDS011;5028;50.974;4.968;2023-05-14T12:39:15;10.90;;;9.60;;
9974;SDS011;5028;50.974;4.968;2023-05-14T12:41:44;9.70;;;8.47;;
9974;SDS011;5028;50.974;4.968;2023-05-14T12:44:13;10.03;;;7.97;;
9974;SDS011;5028;50.974;4.968;2023-05-14T12:46:42;8.90;;;8.00;;
9974;SDS011;5028;50.974;4.968;2023-05-14T12:49:11;9.03;;;7.90;;
9974;SDS011;5028;50.974;4.968;2023-05-14T12:51:43;11.70;;;7.50;;
9974;SDS011;5028;50.974;4.968;2023-05-14T12:54:12;8.40;;;7.60;;
9974;SDS011;5028;50.974;4.968;2023-05-14T12:56:42;9.20;;;7.53;;
9974;SDS011;5028;50.974;4.968;2023-05-14T12:59:11;9.80;;;7.20;;
9974;SDS011;5028;50.974;4.968;2023-05-14T13:01:42;8.67;;;7.17;;
9974;SDS011;5028;50.974;4.968;2023-05-14T13:04:11;8.30;;;7.50;;
9974;SDS011;5028;50.974;4.968;2023-05-14T13:06:40;7.17;;;5.93;;
9974;SDS011;5028;50.974;4.968;2023-05-14T13:09:10;6.20;;;5.60;;
9974;SDS011;5028;50.974;4.968;2023-05-14T13:11:39;6.70;;;5.53;;
9974;SDS011;5028;50.974;4.968;2023-05-14T13:14:08;8.70;;;6.87;;
9974;SDS011;5028;50.974;4.968;2023-05-14T13:16:37;8.33;;;7.30;;
9974;SDS011;5028;50.974;4.968;2023-05-14T13:19:05;7.40;;;6.63;;
9974;SDS011;5028;50.974;4.968;2023-05-14T13:21:35;7.50;;;6.50;;
9974;SDS011;5028;50.974;4.968;2023-05-14T13:24:04;6.90;;;5.97;;
9974;SDS011;5028;50.974;4.968;2023-05-14T13:26:34;5.20;;;4.70;;
9974;SDS011;5028;50.974;4.968;2023-05-14T13:29:04;5.90;;;5.10;;
9974;SDS011;5028;50.974;4.968;2023-05-14T13:31:33;6.80;;;4.70;;
9974;SDS011;5028;50.974;4.968;2023-05-14T13:34:02;6.43;;;5.60;;
9974;SDS011;5028;50.974;4.968;2023-05-14T13:36:31;5.87;;;5.00;;
9974;SDS011;5028;50.974;4.968;2023-05-14T13:39:05;6.37;;;5.03;;
9974;SDS011;5028;50.974;4.968;2023-05-14T13:41:35;6.57;;;5.40;;
9974;SDS011;5028;50.974;4.968;2023-05-14T13:44:04;5.73;;;5.13;;
9974;SDS011;5028;50.974;4.968;2023-05-14T13:46:32;9.23;;;5.68;;
9974;SDS011;5028;50.974;4.968;2023-05-14T13:49:01;5.15;;;4.72;;
9974;SDS011;5028;50.974;4.968;2023-05-14T13:51:30;8.13;;;5.57;;
9974;SDS011;5028;50.974;4.968;2023-05-14T13:54:02;6.07;;;5.47;;
9974;SDS011;5028;50.974;4.968;2023-05-14T13:56:31;6.10;;;5.27;;
9974;SDS011;5028;50.974;4.968;2023-05-14T13:59:01;6.30;;;5.70;;
9974;SDS011;5028;50.974;4.968;2023-05-14T14:01:30;5.43;;;4.90;;
9974;SDS011;5028;50.974;4.968;2023-05-14T14:03:59;8.00;;;4.67;;
9974;SDS011;5028;50.974;4.968;2023-05-14T14:06:29;7.30;;;4.70;;
9974;SDS011;5028;50.974;4.968;2023-05-14T14:08:59;8.77;;;4.43;;
9974;SDS011;5028;50.974;4.968;2023-05-14T14:11:28;6.23;;;4.50;;
9974;SDS011;5028;50.974;4.968;2023-05-14T14:13:57;5.03;;;4.53;;
9974;SDS011;5028;50.974;4.968;2023-05-14T14:16:27;7.43;;;4.40;;
9974;SDS011;5028;50.974;4.968;2023-05-14T14:18:56;4.83;;;4.00;;
9974;SDS011;5028;50.974;4.968;2023-05-14T14:21:25;7.80;;;4.03;;
9974;SDS011;5028;50.974;4.968;2023-05-14T14:23:53;5.77;;;4.10;;
9974;SDS011;5028;50.974;4.968;2023-05-14T14:26:23;4.70;;;4.30;;
9974;SDS011;5028;50.974;4.968;2023-05-14T14:28:53;5.80;;;5.10;;
9974;SDS011;5028;50.974;4.968;2023-05-14T14:31:22;5.37;;;4.63;;
9974;SDS011;5028;50.974;4.968;2023-05-14T14:33:52;6.37;;;5.47;;
9974;SDS011;5028;50.974;4.968;2023-05-14T14:36:21;6.27;;;4.60;;
9974;SDS011;5028;50.974;4.968;2023-05-14T14:38:50;5.90;;;4.57;;
9974;SDS011;5028;50.974;4.968;2023-05-14T14:41:19;4.70;;;4.20;;
9974;SDS011;5028;50.974;4.968;2023-05-14T14:43:50;5.77;;;4.83;;
9974;SDS011;5028;50.974;4.968;2023-05-14T14:46:21;7.03;;;4.83;;
9974;SDS011;5028;50.974;4.968;2023-05-14T14:48:50;6.20;;;4.63;;
9974;SDS011;5028;50.974;4.968;2023-05-14T14:51:20;5.47;;;4.90;;
9974;SDS011;5028;50.974;4.968;2023-05-14T14:53:51;5.37;;;4.83;;
9974;SDS011;5028;50.974;4.968;2023-05-14T14:56:20;5.67;;;4.80;;
9974;SDS011;5028;50.974;4.968;2023-05-14T14:58:49;5.67;;;4.90;;
9974;SDS011;5028;50.974;4.968;2023-05-14T15:01:18;5.00;;;4.50;;
9974;SDS011;5028;50.974;4.968;2023-05-14T15:03:48;4.83;;;4.30;;
9974;SDS011;5028;50.974;4.968;2023-05-14T15:06:17;7.63;;;4.63;;
9974;SDS011;5028;50.974;4.968;2023-05-14T15:08:47;8.33;;;4.20;;